Terminal Aerodrome Forecast
Issued by NWS Kansas City/Pleasant Hill, MO

Home | Current Version | Previous Version | Text Only | Print | Product List | Glossary Off
Versions: 1 2 3 4 5 6 7 8 9 10 11 12 13 14 15

000
FTUS43 KEAX 290500
TAFMCI
TAF
KMCI 290520Z 2906/3006 15015G23KT P6SM SKC
     FM291200 17018G25KT P6SM VCSH BKN025 OVC100
     FM291500 27015G25KT P6SM SCT100
     FM292000 31020G30KT P6SM SCT100
     FM300000 33010KT P6SM SKC=

USA.gov is the U.S. government's official web portal to all federal, state and local government web resources and services.